sensor_id;sensor_type;location;lat;lon;timestamp;temperature;humidity
37456;DHT22;23316;50.718;7.328;2024-03-17T00:00:38;22.30;39.10
37456;DHT22;23316;50.718;7.328;2024-03-17T00:03:05;22.20;39.00
37456;DHT22;23316;50.718;7.328;2024-03-17T00:05:35;22.20;39.10
37456;DHT22;23316;50.718;7.328;2024-03-17T00:08:03;22.20;39.10
37456;DHT22;23316;50.718;7.328;2024-03-17T00:10:31;22.20;39.10
37456;DHT22;23316;50.718;7.328;2024-03-17T00:12:57;22.20;39.10
37456;DHT22;23316;50.718;7.328;2024-03-17T00:15:24;22.20;39.10
37456;DHT22;23316;50.718;7.328;2024-03-17T00:17:51;22.10;39.00
37456;DHT22;23316;50.718;7.328;2024-03-17T00:20:18;22.10;39.00
37456;DHT22;23316;50.718;7.328;2024-03-17T00:22:46;22.10;38.90
37456;DHT22;23316;50.718;7.328;2024-03-17T00:25:15;22.10;38.90
37456;DHT22;23316;50.718;7.328;2024-03-17T00:27:41;22.10;39.00
37456;DHT22;23316;50.718;7.328;2024-03-17T00:30:11;22.10;39.00
37456;DHT22;23316;50.718;7.328;2024-03-17T00:32:39;22.10;38.90
37456;DHT22;23316;50.718;7.328;2024-03-17T00:35:07;22.10;38.90
37456;DHT22;23316;50.718;7.328;2024-03-17T00:37:34;22.00;38.90
37456;DHT22;23316;50.718;7.328;2024-03-17T00:40:01;22.00;38.90
37456;DHT22;23316;50.718;7.328;2024-03-17T00:42:30;22.00;38.90
37456;DHT22;23316;50.718;7.328;2024-03-17T00:44:56;22.00;38.90
37456;DHT22;23316;50.718;7.328;2024-03-17T00:47:26;22.00;38.90
37456;DHT22;23316;50.718;7.328;2024-03-17T00:49:52;22.00;38.90
37456;DHT22;23316;50.718;7.328;2024-03-17T00:52:19;22.00;38.90
37456;DHT22;23316;50.718;7.328;2024-03-17T00:54:47;21.90;38.80
37456;DHT22;23316;50.718;7.328;2024-03-17T00:57:14;21.90;38.80
37456;DHT22;23316;50.718;7.328;2024-03-17T00:59:42;21.90;38.80
37456;DHT22;23316;50.718;7.328;2024-03-17T01:02:10;21.90;38.80
37456;DHT22;23316;50.718;7.328;2024-03-17T01:04:39;21.90;38.80
37456;DHT22;23316;50.718;7.328;2024-03-17T01:07:06;21.90;38.80
37456;DHT22;23316;50.718;7.328;2024-03-17T01:09:33;21.80;38.80
37456;DHT22;23316;50.718;7.328;2024-03-17T01:12:00;21.80;38.80
37456;DHT22;23316;50.718;7.328;2024-03-17T01:14:27;21.80;38.80
37456;DHT22;23316;50.718;7.328;2024-03-17T01:16:57;21.80;38.90
37456;DHT22;23316;50.718;7.328;2024-03-17T01:19:24;21.90;38.90
37456;DHT22;23316;50.718;7.328;2024-03-17T01:21:51;21.80;38.80
37456;DHT22;23316;50.718;7.328;2024-03-17T01:24:18;21.90;38.90
37456;DHT22;23316;50.718;7.328;2024-03-17T01:26:45;21.90;38.90
37456;DHT22;23316;50.718;7.328;2024-03-17T01:29:11;21.90;38.80
37456;DHT22;23316;50.718;7.328;2024-03-17T01:31:39;21.90;38.80
37456;DHT22;23316;50.718;7.328;2024-03-17T01:34:07;21.90;38.80
37456;DHT22;23316;50.718;7.328;2024-03-17T01:36:34;21.90;38.70
37456;DHT22;23316;50.718;7.328;2024-03-17T01:39:00;21.90;38.70
37456;DHT22;23316;50.718;7.328;2024-03-17T01:41:28;22.00;38.60
37456;DHT22;23316;50.718;7.328;2024-03-17T01:43:55;22.00;38.60
37456;DHT22;23316;50.718;7.328;2024-03-17T01:46:24;22.00;38.50
37456;DHT22;23316;50.718;7.328;2024-03-17T01:48:51;22.00;38.50
37456;DHT22;23316;50.718;7.328;2024-03-17T01:51:19;22.00;38.50
37456;DHT22;23316;50.718;7.328;2024-03-17T01:53:46;22.00;38.10
37456;DHT22;23316;50.718;7.328;2024-03-17T01:56:15;22.00;37.90
37456;DHT22;23316;50.718;7.328;2024-03-17T01:58:43;22.00;37.80
37456;DHT22;23316;50.718;7.328;2024-03-17T02:01:11;22.00;37.70
37456;DHT22;23316;50.718;7.328;2024-03-17T02:03:40;21.90;37.50
37456;DHT22;23316;50.718;7.328;2024-03-17T02:06:08;21.90;37.20
37456;DHT22;23316;50.718;7.328;2024-03-17T02:08:51;21.90;36.80
37456;DHT22;23316;50.718;7.328;2024-03-17T02:11:23;21.90;36.20
37456;DHT22;23316;50.718;7.328;2024-03-17T02:13:50;21.90;36.70
37456;DHT22;23316;50.718;7.328;2024-03-17T02:16:17;21.90;36.40
37456;DHT22;23316;50.718;7.328;2024-03-17T02:18:44;21.80;36.40
37456;DHT22;23316;50.718;7.328;2024-03-17T02:21:12;21.80;36.60
37456;DHT22;23316;50.718;7.328;2024-03-17T02:23:39;21.70;36.70
37456;DHT22;23316;50.718;7.328;2024-03-17T02:26:07;21.70;36.80
37456;DHT22;23316;50.718;7.328;2024-03-17T02:28:38;21.70;37.00
37456;DHT22;23316;50.718;7.328;2024-03-17T02:31:07;21.70;37.10
37456;DHT22;23316;50.718;7.328;2024-03-17T02:33:34;21.60;37.30
37456;DHT22;23316;50.718;7.328;2024-03-17T02:36:01;21.60;37.40
37456;DHT22;23316;50.718;7.328;2024-03-17T02:38:30;21.60;37.50
37456;DHT22;23316;50.718;7.328;2024-03-17T02:41:16;21.70;37.60
37456;DHT22;23316;50.718;7.328;2024-03-17T02:43:44;21.70;37.70
37456;DHT22;23316;50.718;7.328;2024-03-17T02:46:12;21.70;37.70
37456;DHT22;23316;50.718;7.328;2024-03-17T02:48:39;21.70;37.80
37456;DHT22;23316;50.718;7.328;2024-03-17T05:12:16;21.60;37.50
37456;DHT22;23316;50.718;7.328;2024-03-17T05:14:44;21.60;37.50
37456;DHT22;23316;50.718;7.328;2024-03-17T05:17:11;21.60;37.50
37456;DHT22;23316;50.718;7.328;2024-03-17T05:19:38;21.60;37.40
37456;DHT22;23316;50.718;7.328;2024-03-17T05:22:06;21.60;37.40
37456;DHT22;23316;50.718;7.328;2024-03-17T05:24:33;21.60;37.40
37456;DHT22;23316;50.718;7.328;2024-03-17T05:27:01;21.50;37.30
37456;DHT22;23316;50.718;7.328;2024-03-17T05:29:29;21.50;37.30
37456;DHT22;23316;50.718;7.328;2024-03-17T05:31:57;21.60;37.30
37456;DHT22;23316;50.718;7.328;2024-03-17T05:34:24;21.60;37.40
37456;DHT22;23316;50.718;7.328;2024-03-17T05:36:52;21.60;37.50
37456;DHT22;23316;50.718;7.328;2024-03-17T05:39:19;21.60;37.40
37456;DHT22;23316;50.718;7.328;2024-03-17T05:41:48;21.60;37.50
37456;DHT22;23316;50.718;7.328;2024-03-17T05:44:15;21.60;37.50
37456;DHT22;23316;50.718;7.328;2024-03-17T05:46:44;21.60;37.60
37456;DHT22;23316;50.718;7.328;2024-03-17T05:49:12;21.70;37.70
37456;DHT22;23316;50.718;7.328;2024-03-17T05:51:40;21.70;37.80
37456;DHT22;23316;50.718;7.328;2024-03-17T05:54:07;21.70;37.50
37456;DHT22;23316;50.718;7.328;2024-03-17T05:56:34;21.80;37.40
37456;DHT22;23316;50.718;7.328;2024-03-17T05:59:02;21.80;37.40
37456;DHT22;23316;50.718;7.328;2024-03-17T06:01:29;21.90;37.30
37456;DHT22;23316;50.718;7.328;2024-03-17T06:03:57;21.90;37.00
37456;DHT22;23316;50.718;7.328;2024-03-17T06:06:25;21.90;36.60
37456;DHT22;23316;50.718;7.328;2024-03-17T06:08:53;21.90;36.30
37456;DHT22;23316;50.718;7.328;2024-03-17T06:11:20;21.90;36.10
37456;DHT22;23316;50.718;7.328;2024-03-17T06:13:47;22.00;36.20
37456;DHT22;23316;50.718;7.328;2024-03-17T06:16:14;22.00;36.20
37456;DHT22;23316;50.718;7.328;2024-03-17T06:18:41;22.00;36.10
37456;DHT22;23316;50.718;7.328;2024-03-17T06:21:10;22.00;36.20
37456;DHT22;23316;50.718;7.328;2024-03-17T06:23:37;22.00;36.20
37456;DHT22;23316;50.718;7.328;2024-03-17T06:26:06;22.00;36.20
37456;DHT22;23316;50.718;7.328;2024-03-17T06:28:33;22.00;36.20
37456;DHT22;23316;50.718;7.328;2024-03-17T06:31:00;22.00;36.20
37456;DHT22;23316;50.718;7.328;2024-03-17T06:33:30;22.00;36.20
37456;DHT22;23316;50.718;7.328;2024-03-17T06:35:58;22.00;36.00
37456;DHT22;23316;50.718;7.328;2024-03-17T06:38:31;22.00;35.80
37456;DHT22;23316;50.718;7.328;2024-03-17T06:40:58;22.00;35.60
37456;DHT22;23316;50.718;7.328;2024-03-17T06:43:26;22.00;35.70
37456;DHT22;23316;50.718;7.328;2024-03-17T06:45:56;22.00;35.70
37456;DHT22;23316;50.718;7.328;2024-03-17T06:48:24;22.00;35.90
37456;DHT22;23316;50.718;7.328;2024-03-17T06:50:51;22.00;36.00
37456;DHT22;23316;50.718;7.328;2024-03-17T06:53:20;22.00;36.50
37456;DHT22;23316;50.718;7.328;2024-03-17T06:55:55;22.00;36.00
37456;DHT22;23316;50.718;7.328;2024-03-17T06:58:23;22.00;36.00
37456;DHT22;23316;50.718;7.328;2024-03-17T07:00:54;22.00;36.20
37456;DHT22;23316;50.718;7.328;2024-03-17T07:03:23;22.00;36.10
37456;DHT22;23316;50.718;7.328;2024-03-17T07:05:52;21.90;36.00
37456;DHT22;23316;50.718;7.328;2024-03-17T07:08:20;21.90;36.10
37456;DHT22;23316;50.718;7.328;2024-03-17T07:10:59;21.90;36.10
37456;DHT22;23316;50.718;7.328;2024-03-17T07:13:29;21.90;36.10
37456;DHT22;23316;50.718;7.328;2024-03-17T07:15:56;21.90;36.20
37456;DHT22;23316;50.718;7.328;2024-03-17T07:18:25;21.90;36.20
37456;DHT22;23316;50.718;7.328;2024-03-17T07:20:53;21.90;36.20
37456;DHT22;23316;50.718;7.328;2024-03-17T07:23:20;21.90;36.30
37456;DHT22;23316;50.718;7.328;2024-03-17T07:25:54;21.90;36.40
37456;DHT22;23316;50.718;7.328;2024-03-17T07:28:23;21.90;36.40
37456;DHT22;23316;50.718;7.328;2024-03-17T07:30:52;21.90;36.50
37456;DHT22;23316;50.718;7.328;2024-03-17T07:33:20;21.90;36.60
37456;DHT22;23316;50.718;7.328;2024-03-17T07:35:48;21.90;36.60
37456;DHT22;23316;50.718;7.328;2024-03-17T07:38:16;21.90;36.70
37456;DHT22;23316;50.718;7.328;2024-03-17T07:40:44;21.90;36.60
37456;DHT22;23316;50.718;7.328;2024-03-17T07:43:11;22.00;36.80
37456;DHT22;23316;50.718;7.328;2024-03-17T07:45:40;21.90;36.70
37456;DHT22;23316;50.718;7.328;2024-03-17T07:48:12;22.00;36.80
37456;DHT22;23316;50.718;7.328;2024-03-17T07:50:39;22.00;36.90
37456;DHT22;23316;50.718;7.328;2024-03-17T07:53:06;22.00;37.00
37456;DHT22;23316;50.718;7.328;2024-03-17T07:55:33;22.10;37.10
37456;DHT22;23316;50.718;7.328;2024-03-17T07:58:00;22.10;37.20
37456;DHT22;23316;50.718;7.328;2024-03-17T08:00:28;22.20;37.20
37456;DHT22;23316;50.718;7.328;2024-03-17T08:02:56;22.20;37.10
37456;DHT22;23316;50.718;7.328;2024-03-17T08:05:23;22.20;37.10
37456;DHT22;23316;50.718;7.328;2024-03-17T08:07:51;22.30;37.30
37456;DHT22;23316;50.718;7.328;2024-03-17T08:10:18;22.30;37.30
37456;DHT22;23316;50.718;7.328;2024-03-17T08:12:45;22.40;37.40
37456;DHT22;23316;50.718;7.328;2024-03-17T08:15:13;22.40;36.90
37456;DHT22;23316;50.718;7.328;2024-03-17T08:17:40;22.40;36.80
37456;DHT22;23316;50.718;7.328;2024-03-17T08:20:09;22.40;36.80
37456;DHT22;23316;50.718;7.328;2024-03-17T08:22:36;22.40;36.80
37456;DHT22;23316;50.718;7.328;2024-03-17T08:25:04;22.50;36.80
37456;DHT22;23316;50.718;7.328;2024-03-17T08:27:31;22.50;36.80
37456;DHT22;23316;50.718;7.328;2024-03-17T08:29:59;22.50;36.80
37456;DHT22;23316;50.718;7.328;2024-03-17T08:32:26;22.50;36.70
37456;DHT22;23316;50.718;7.328;2024-03-17T08:34:53;22.50;36.70
37456;DHT22;23316;50.718;7.328;2024-03-17T08:37:22;22.50;36.70
37456;DHT22;23316;50.718;7.328;2024-03-17T08:39:52;22.50;36.70
37456;DHT22;23316;50.718;7.328;2024-03-17T08:42:19;22.50;36.70
37456;DHT22;23316;50.718;7.328;2024-03-17T08:44:46;22.50;36.70
37456;DHT22;23316;50.718;7.328;2024-03-17T08:47:13;22.50;36.70
37456;DHT22;23316;50.718;7.328;2024-03-17T08:49:41;22.50;36.70
37456;DHT22;23316;50.718;7.328;2024-03-17T08:52:08;22.50;36.60
37456;DHT22;23316;50.718;7.328;2024-03-17T08:54:37;22.50;36.60
37456;DHT22;23316;50.718;7.328;2024-03-17T08:57:04;22.50;36.60
37456;DHT22;23316;50.718;7.328;2024-03-17T08:59:32;22.50;36.60
37456;DHT22;23316;50.718;7.328;2024-03-17T09:01:59;22.50;36.60
37456;DHT22;23316;50.718;7.328;2024-03-17T09:04:26;22.50;36.10
37456;DHT22;23316;50.718;7.328;2024-03-17T09:06:53;22.50;35.50
37456;DHT22;23316;50.718;7.328;2024-03-17T09:09:22;22.50;35.50
37456;DHT22;23316;50.718;7.328;2024-03-17T09:11:50;22.50;35.90
37456;DHT22;23316;50.718;7.328;2024-03-17T09:14:18;22.50;36.00
37456;DHT22;23316;50.718;7.328;2024-03-17T09:16:47;22.50;36.00
37456;DHT22;23316;50.718;7.328;2024-03-17T09:19:15;22.50;36.10
37456;DHT22;23316;50.718;7.328;2024-03-17T09:21:42;22.50;36.20
37456;DHT22;23316;50.718;7.328;2024-03-17T09:24:10;22.50;36.20
37456;DHT22;23316;50.718;7.328;2024-03-17T09:26:38;22.40;36.00
37456;DHT22;23316;50.718;7.328;2024-03-17T09:29:07;22.40;35.80
37456;DHT22;23316;50.718;7.328;2024-03-17T09:31:34;22.40;35.60
37456;DHT22;23316;50.718;7.328;2024-03-17T09:34:02;22.40;35.60
37456;DHT22;23316;50.718;7.328;2024-03-17T09:36:30;22.40;35.70
37456;DHT22;23316;50.718;7.328;2024-03-17T09:38:57;22.40;35.90
37456;DHT22;23316;50.718;7.328;2024-03-17T09:41:26;22.40;36.00
37456;DHT22;23316;50.718;7.328;2024-03-17T09:43:56;22.50;36.10
37456;DHT22;23316;50.718;7.328;2024-03-17T09:46:26;22.50;36.20
37456;DHT22;23316;50.718;7.328;2024-03-17T09:48:55;22.50;35.90
37456;DHT22;23316;50.718;7.328;2024-03-17T09:51:24;22.50;35.70
37456;DHT22;23316;50.718;7.328;2024-03-17T09:53:52;22.50;35.40
37456;DHT22;23316;50.718;7.328;2024-03-17T09:56:21;22.50;35.30
37456;DHT22;23316;50.718;7.328;2024-03-17T09:58:49;22.50;35.30
37456;DHT22;23316;50.718;7.328;2024-03-17T10:01:17;22.50;35.10
37456;DHT22;23316;50.718;7.328;2024-03-17T10:03:47;22.60;35.30
37456;DHT22;23316;50.718;7.328;2024-03-17T10:06:18;22.60;35.20
37456;DHT22;23316;50.718;7.328;2024-03-17T10:08:47;22.60;35.30
37456;DHT22;23316;50.718;7.328;2024-03-17T10:11:16;22.60;35.40
37456;DHT22;23316;50.718;7.328;2024-03-17T10:13:45;22.60;35.50
37456;DHT22;23316;50.718;7.328;2024-03-17T10:16:23;22.60;35.50
37456;DHT22;23316;50.718;7.328;2024-03-17T10:19:06;22.60;36.10
37456;DHT22;23316;50.718;7.328;2024-03-17T10:21:35;22.60;35.60
37456;DHT22;23316;50.718;7.328;2024-03-17T10:24:06;22.60;35.60
37456;DHT22;23316;50.718;7.328;2024-03-17T10:26:43;22.60;35.60
37456;DHT22;23316;50.718;7.328;2024-03-17T10:29:20;22.60;35.70
37456;DHT22;23316;50.718;7.328;2024-03-17T10:31:48;22.60;35.70
37456;DHT22;23316;50.718;7.328;2024-03-17T10:34:17;22.60;35.70
37456;DHT22;23316;50.718;7.328;2024-03-17T10:36:45;22.60;35.70
37456;DHT22;23316;50.718;7.328;2024-03-17T10:39:26;22.60;35.70
37456;DHT22;23316;50.718;7.328;2024-03-17T10:41:59;22.60;35.80
37456;DHT22;23316;50.718;7.328;2024-03-17T10:44:26;22.60;35.80
37456;DHT22;23316;50.718;7.328;2024-03-17T10:46:55;22.60;35.80
37456;DHT22;23316;50.718;7.328;2024-03-17T10:49:29;22.60;35.80
37456;DHT22;23316;50.718;7.328;2024-03-17T10:51:59;22.60;35.80
37456;DHT22;23316;50.718;7.328;2024-03-17T10:54:26;22.60;35.90
37456;DHT22;23316;50.718;7.328;2024-03-17T10:56:55;22.60;35.60
37456;DHT22;23316;50.718;7.328;2024-03-17T10:59:32;22.60;35.50
37456;DHT22;23316;50.718;7.328;2024-03-17T11:02:02;22.60;35.30
37456;DHT22;23316;50.718;7.328;2024-03-17T11:04:31;22.60;35.40
37456;DHT22;23316;50.718;7.328;2024-03-17T11:06:58;22.60;35.50
37456;DHT22;23316;50.718;7.328;2024-03-17T11:09:27;22.60;35.70
37456;DHT22;23316;50.718;7.328;2024-03-17T11:11:56;22.60;35.80
37456;DHT22;23316;50.718;7.328;2024-03-17T11:14:24;22.70;35.90
37456;DHT22;23316;50.718;7.328;2024-03-17T11:16:52;22.70;36.00
37456;DHT22;23316;50.718;7.328;2024-03-17T11:19:19;22.70;36.00
37456;DHT22;23316;50.718;7.328;2024-03-17T11:21:48;22.70;36.00
37456;DHT22;23316;50.718;7.328;2024-03-17T11:24:20;22.80;36.10
37456;DHT22;23316;50.718;7.328;2024-03-17T11:26:48;22.80;36.10
37456;DHT22;23316;50.718;7.328;2024-03-17T11:29:29;22.80;36.10
37456;DHT22;23316;50.718;7.328;2024-03-17T11:31:59;22.80;36.10
37456;DHT22;23316;50.718;7.328;2024-03-17T11:34:34;22.80;36.10
37456;DHT22;23316;50.718;7.328;2024-03-17T11:57:59;22.70;35.90
37456;DHT22;23316;50.718;7.328;2024-03-17T12:45:20;22.60;36.40
37456;DHT22;23316;50.718;7.328;2024-03-17T12:47:49;22.60;36.40
37456;DHT22;23316;50.718;7.328;2024-03-17T12:50:17;22.60;36.40
37456;DHT22;23316;50.718;7.328;2024-03-17T13:09:56;22.70;36.20
37456;DHT22;23316;50.718;7.328;2024-03-17T15:52:10;22.50;36.70
37456;DHT22;23316;50.718;7.328;2024-03-17T15:54:37;22.50;36.70
37456;DHT22;23316;50.718;7.328;2024-03-17T15:57:05;22.50;36.80
37456;DHT22;23316;50.718;7.328;2024-03-17T15:59:32;22.40;36.70
37456;DHT22;23316;50.718;7.328;2024-03-17T16:02:00;22.50;36.80
37456;DHT22;23316;50.718;7.328;2024-03-17T16:04:29;22.50;36.80
37456;DHT22;23316;50.718;7.328;2024-03-17T16:06:58;22.40;36.80
37456;DHT22;23316;50.718;7.328;2024-03-17T16:09:27;22.40;36.80
37456;DHT22;23316;50.718;7.328;2024-03-17T16:11:54;22.40;36.80
37456;DHT22;23316;50.718;7.328;2024-03-17T16:14:21;22.50;36.80
37456;DHT22;23316;50.718;7.328;2024-03-17T16:16:50;22.40;36.60
37456;DHT22;23316;50.718;7.328;2024-03-17T16:19:17;22.40;36.50
37456;DHT22;23316;50.718;7.328;2024-03-17T16:21:45;22.40;36.40
37456;DHT22;23316;50.718;7.328;2024-03-17T16:24:14;22.40;36.30
37456;DHT22;23316;50.718;7.328;2024-03-17T16:26:43;22.40;35.90
37456;DHT22;23316;50.718;7.328;2024-03-17T16:29:13;22.40;35.60
37456;DHT22;23316;50.718;7.328;2024-03-17T16:31:42;22.40;35.40
37456;DHT22;23316;50.718;7.328;2024-03-17T16:34:09;22.40;35.10
37456;DHT22;23316;50.718;7.328;2024-03-17T16:36:38;22.40;35.10
37456;DHT22;23316;50.718;7.328;2024-03-17T16:39:07;22.40;35.00
37456;DHT22;23316;50.718;7.328;2024-03-17T16:41:37;22.40;34.90
37456;DHT22;23316;50.718;7.328;2024-03-17T16:44:11;22.30;35.00
37456;DHT22;23316;50.718;7.328;2024-03-17T16:47:08;22.30;35.00
37456;DHT22;23316;50.718;7.328;2024-03-17T16:49:40;22.40;35.30
37456;DHT22;23316;50.718;7.328;2024-03-17T16:52:07;22.40;35.50
37456;DHT22;23316;50.718;7.328;2024-03-17T16:54:34;22.40;35.70
37456;DHT22;23316;50.718;7.328;2024-03-17T16:57:04;22.40;35.90
37456;DHT22;23316;50.718;7.328;2024-03-17T16:59:33;22.50;36.00
37456;DHT22;23316;50.718;7.328;2024-03-17T17:02:00;22.50;36.00
37456;DHT22;23316;50.718;7.328;2024-03-17T17:04:27;22.50;36.10
37456;DHT22;23316;50.718;7.328;2024-03-17T17:06:54;22.50;36.00
37456;DHT22;23316;50.718;7.328;2024-03-17T17:09:22;22.50;36.00
37456;DHT22;23316;50.718;7.328;2024-03-17T17:11:51;22.50;36.10
37456;DHT22;23316;50.718;7.328;2024-03-17T17:14:19;22.50;36.10
37456;DHT22;23316;50.718;7.328;2024-03-17T17:16:50;22.50;36.10
37456;DHT22;23316;50.718;7.328;2024-03-17T17:19:17;22.50;36.20
37456;DHT22;23316;50.718;7.328;2024-03-17T17:21:44;22.50;36.20
37456;DHT22;23316;50.718;7.328;2024-03-17T17:24:17;22.50;36.20
37456;DHT22;23316;50.718;7.328;2024-03-17T17:26:49;22.50;36.20
37456;DHT22;23316;50.718;7.328;2024-03-17T17:29:18;22.50;36.20
37456;DHT22;23316;50.718;7.328;2024-03-17T17:31:46;22.50;36.30
37456;DHT22;23316;50.718;7.328;2024-03-17T17:34:14;22.60;36.40
37456;DHT22;23316;50.718;7.328;2024-03-17T17:36:42;22.60;36.50
37456;DHT22;23316;50.718;7.328;2024-03-17T17:39:10;22.60;36.50
37456;DHT22;23316;50.718;7.328;2024-03-17T17:41:38;22.60;36.50
37456;DHT22;23316;50.718;7.328;2024-03-17T17:44:05;22.60;36.60
37456;DHT22;23316;50.718;7.328;2024-03-17T17:46:33;22.60;36.60
37456;DHT22;23316;50.718;7.328;2024-03-17T17:49:00;22.60;36.70
37456;DHT22;23316;50.718;7.328;2024-03-17T17:51:29;22.60;36.80
37456;DHT22;23316;50.718;7.328;2024-03-17T17:53:58;22.60;36.90
37456;DHT22;23316;50.718;7.328;2024-03-17T17:56:25;22.60;36.90
37456;DHT22;23316;50.718;7.328;2024-03-17T17:58:52;22.60;36.80
37456;DHT22;23316;50.718;7.328;2024-03-17T18:01:20;22.60;36.80
37456;DHT22;23316;50.718;7.328;2024-03-17T18:03:48;22.60;36.80
37456;DHT22;23316;50.718;7.328;2024-03-17T18:06:18;22.50;36.80
37456;DHT22;23316;50.718;7.328;2024-03-17T18:08:47;22.50;36.80
37456;DHT22;23316;50.718;7.328;2024-03-17T18:11:18;22.60;36.80
37456;DHT22;23316;50.718;7.328;2024-03-17T18:13:46;22.60;36.80
37456;DHT22;23316;50.718;7.328;2024-03-17T18:16:14;22.50;36.80
37456;DHT22;23316;50.718;7.328;2024-03-17T18:18:41;22.50;36.80
37456;DHT22;23316;50.718;7.328;2024-03-17T18:21:10;22.50;36.80
37456;DHT22;23316;50.718;7.328;2024-03-17T18:23:38;22.50;36.90
37456;DHT22;23316;50.718;7.328;2024-03-17T18:26:09;22.50;36.90
37456;DHT22;23316;50.718;7.328;2024-03-17T18:28:37;22.50;36.80
37456;DHT22;23316;50.718;7.328;2024-03-17T18:31:05;22.50;36.90
37456;DHT22;23316;50.718;7.328;2024-03-17T18:33:34;22.50;37.00
37456;DHT22;23316;50.718;7.328;2024-03-17T18:36:03;22.50;37.00
37456;DHT22;23316;50.718;7.328;2024-03-17T18:38:32;22.50;37.00
37456;DHT22;23316;50.718;7.328;2024-03-17T18:41:00;22.50;37.50
37456;DHT22;23316;50.718;7.328;2024-03-17T18:43:31;22.50;37.10
37456;DHT22;23316;50.718;7.328;2024-03-17T18:46:07;22.50;37.00
37456;DHT22;23316;50.718;7.328;2024-03-17T18:48:34;22.50;37.10
37456;DHT22;23316;50.718;7.328;2024-03-17T18:51:01;22.50;37.00
37456;DHT22;23316;50.718;7.328;2024-03-17T18:53:28;22.50;37.00
37456;DHT22;23316;50.718;7.328;2024-03-17T18:55:59;22.40;37.00
37456;DHT22;23316;50.718;7.328;2024-03-17T18:58:27;22.40;37.00
37456;DHT22;23316;50.718;7.328;2024-03-17T19:00:58;22.40;37.00
37456;DHT22;23316;50.718;7.328;2024-03-17T19:03:27;22.40;37.60
37456;DHT22;23316;50.718;7.328;2024-03-17T19:05:55;22.40;37.20
37456;DHT22;23316;50.718;7.328;2024-03-17T19:08:23;22.40;37.30
37456;DHT22;23316;50.718;7.328;2024-03-17T19:10:52;22.40;37.40
37456;DHT22;23316;50.718;7.328;2024-03-17T19:13:19;22.40;37.40
37456;DHT22;23316;50.718;7.328;2024-03-17T19:15:58;22.40;37.50
37456;DHT22;23316;50.718;7.328;2024-03-17T19:18:26;22.40;37.30
37456;DHT22;23316;50.718;7.328;2024-03-17T19:21:04;22.40;37.20
37456;DHT22;23316;50.718;7.328;2024-03-17T19:23:33;22.50;37.30
37456;DHT22;23316;50.718;7.328;2024-03-17T19:26:02;22.50;37.30
37456;DHT22;23316;50.718;7.328;2024-03-17T19:28:30;22.50;37.30
37456;DHT22;23316;50.718;7.328;2024-03-17T19:30:59;22.50;37.80
37456;DHT22;23316;50.718;7.328;2024-03-17T19:33:27;22.50;37.30
37456;DHT22;23316;50.718;7.328;2024-03-17T19:35:55;22.50;37.30
37456;DHT22;23316;50.718;7.328;2024-03-17T19:38:24;22.50;37.20
37456;DHT22;23316;50.718;7.328;2024-03-17T19:40:54;22.60;37.30
37456;DHT22;23316;50.718;7.328;2024-03-17T19:43:27;22.60;37.30
37456;DHT22;23316;50.718;7.328;2024-03-17T19:46:01;22.60;37.40
37456;DHT22;23316;50.718;7.328;2024-03-17T19:48:32;22.60;37.30
37456;DHT22;23316;50.718;7.328;2024-03-17T19:51:07;22.60;37.30
37456;DHT22;23316;50.718;7.328;2024-03-17T19:53:36;22.60;36.80
37456;DHT22;23316;50.718;7.328;2024-03-17T19:56:04;22.60;36.80
37456;DHT22;23316;50.718;7.328;2024-03-17T19:58:32;22.60;36.80
37456;DHT22;23316;50.718;7.328;2024-03-17T20:01:01;22.60;36.80
37456;DHT22;23316;50.718;7.328;2024-03-17T20:03:29;22.60;36.90
37456;DHT22;23316;50.718;7.328;2024-03-17T20:05:57;22.70;36.90
37456;DHT22;23316;50.718;7.328;2024-03-17T20:08:25;22.60;36.80
37456;DHT22;23316;50.718;7.328;2024-03-17T20:10:53;22.60;36.80
37456;DHT22;23316;50.718;7.328;2024-03-17T20:13:20;22.60;37.30
37456;DHT22;23316;50.718;7.328;2024-03-17T20:15:48;22.60;36.80
37456;DHT22;23316;50.718;7.328;2024-03-17T20:18:17;22.60;36.80
37456;DHT22;23316;50.718;7.328;2024-03-17T20:20:45;22.60;36.80
37456;DHT22;23316;50.718;7.328;2024-03-17T20:23:13;22.60;36.80
37456;DHT22;23316;50.718;7.328;2024-03-17T20:25:41;22.60;36.80
37456;DHT22;23316;50.718;7.328;2024-03-17T20:28:11;22.60;36.80
37456;DHT22;23316;50.718;7.328;2024-03-17T20:30:39;22.50;36.80
37456;DHT22;23316;50.718;7.328;2024-03-17T20:33:06;22.50;36.80
37456;DHT22;23316;50.718;7.328;2024-03-17T20:35:36;22.50;36.80
37456;DHT22;23316;50.718;7.328;2024-03-17T20:38:04;22.50;36.80
37456;DHT22;23316;50.718;7.328;2024-03-17T20:40:33;22.50;36.90
37456;DHT22;23316;50.718;7.328;2024-03-17T20:43:01;22.50;36.90
37456;DHT22;23316;50.718;7.328;2024-03-17T20:45:28;22.50;36.90
37456;DHT22;23316;50.718;7.328;2024-03-17T20:47:56;22.50;36.90
37456;DHT22;23316;50.718;7.328;2024-03-17T20:50:24;22.50;37.00
37456;DHT22;23316;50.718;7.328;2024-03-17T20:52:53;22.50;37.00
37456;DHT22;23316;50.718;7.328;2024-03-17T20:55:21;22.40;37.10
37456;DHT22;23316;50.718;7.328;2024-03-17T20:57:49;22.50;37.20
37456;DHT22;23316;50.718;7.328;2024-03-17T21:00:18;22.40;37.00
37456;DHT22;23316;50.718;7.328;2024-03-17T21:02:50;22.40;36.80
37456;DHT22;23316;50.718;7.328;2024-03-17T21:05:17;22.40;36.90
37456;DHT22;23316;50.718;7.328;2024-03-17T21:07:45;22.40;36.80
37456;DHT22;23316;50.718;7.328;2024-03-17T21:10:14;22.40;36.90
37456;DHT22;23316;50.718;7.328;2024-03-17T21:12:45;22.40;36.90
37456;DHT22;23316;50.718;7.328;2024-03-17T21:15:13;22.40;36.90
37456;DHT22;23316;50.718;7.328;2024-03-17T21:17:41;22.40;36.90
37456;DHT22;23316;50.718;7.328;2024-03-17T21:20:10;22.40;36.90
37456;DHT22;23316;50.718;7.328;2024-03-17T21:22:40;22.40;37.00
37456;DHT22;23316;50.718;7.328;2024-03-17T21:25:08;22.40;37.10
37456;DHT22;23316;50.718;7.328;2024-03-17T21:27:37;22.40;37.10
37456;DHT22;23316;50.718;7.328;2024-03-17T21:30:10;22.40;37.20
37456;DHT22;23316;50.718;7.328;2024-03-17T21:32:38;22.50;37.30
37456;DHT22;23316;50.718;7.328;2024-03-17T21:35:05;22.50;37.00
37456;DHT22;23316;50.718;7.328;2024-03-17T21:37:33;22.50;37.10
37456;DHT22;23316;50.718;7.328;2024-03-17T21:40:01;22.50;37.10
37456;DHT22;23316;50.718;7.328;2024-03-17T21:42:31;22.50;37.10
37456;DHT22;23316;50.718;7.328;2024-03-17T21:45:00;22.50;37.10
37456;DHT22;23316;50.718;7.328;2024-03-17T21:47:29;22.60;37.10
37456;DHT22;23316;50.718;7.328;2024-03-17T21:49:56;22.60;37.10
37456;DHT22;23316;50.718;7.328;2024-03-17T21:52:23;22.60;37.10
37456;DHT22;23316;50.718;7.328;2024-03-17T21:54:51;22.60;37.00
37456;DHT22;23316;50.718;7.328;2024-03-17T21:57:19;22.60;37.50
37456;DHT22;23316;50.718;7.328;2024-03-17T21:59:46;22.60;37.00
37456;DHT22;23316;50.718;7.328;2024-03-17T22:02:15;22.60;37.00